Chongqing Jiangbei International Airport
ZUCK : now visible

Airfield :











YOU CAN JOIN US ON...

 
LOGIN :

Register | Disclaimer

   EN    FR    IT 

 









Legend :    VFR   Marginal VFR   IFR   Intensive IFR   Very Intensive IFR
Visi :
Ceiling :
>= 8 km
>= 3000ft
5 to 8 km
1000 to 3000 ft
1500m to 5 km
500 to 1000 ft
800 to 1500m
200 to 500 ft
< 800m
< 200 ft
Symbols :   Thunderstorms  Fog  Heavy snow  Heavy precipitations  Wind > 20 kt






- Airport Elevation : 1365 ft
- IATA code : CKG


ZUCK - Chongqing Jiangbei International

CURRENT METAR :
  • 120000Z 00000MPS 2200 BR FEW002 SCT011 OVC030 14/13 Q1016 BECMG TL0130 3500

EXPIRED METARs :
  • 112300Z VRB01MPS 2500 -RA BR BCFG FEW003 OVC030 14/13 Q1015 BECMG TL0030 3500
  • 112200Z VRB01MPS 2500 -RA BR FEW003 OVC030 14/13 Q1015 NOSIG

TAF TAF ZUCK
Valid from the 12 at 00:00 until the 13 at 00:00 UTC


111901Z 1200/1224 03003MPS 3500 -RA BR FEW005 SCT020 OVC040 TX16/1206Z TN14/1221Z



MET'MAP, your aeronautical weather chart ! - Copyright ORBIFLY December 2007 - Disclaimer

ORBIFLY MET'MAP TEAM :

Programming & Development : Alexandra Zaïnal
Concept & Development : Baudouin d'Aumeries
Co-Development & Prog : Marc-Olivier Méhu
Technical & hardware support : Manuel Goepfert

Contact : metmap@orbifly.com




SOURCES & CREDITS :

   NOAA       Earth
Advisory